sensor_id;sensor_type;location;lat;lon;timestamp;P1;durP1;ratioP1;P2;durP2;ratioP2
32872;SDS011;19224;52.462;16.898;2023-05-07T00:00:55;11.97;;;6.65;;
32872;SDS011;19224;52.462;16.898;2023-05-07T00:03:26;12.63;;;6.37;;
32872;SDS011;19224;52.462;16.898;2023-05-07T00:05:57;8.13;;;5.58;;
32872;SDS011;19224;52.462;16.898;2023-05-07T00:08:28;15.03;;;6.20;;
32872;SDS011;19224;52.462;16.898;2023-05-07T00:10:58;13.53;;;6.30;;
32872;SDS011;19224;52.462;16.898;2023-05-07T00:13:28;10.20;;;5.62;;
32872;SDS011;19224;52.462;16.898;2023-05-07T00:16:00;8.30;;;5.90;;
32872;SDS011;19224;52.462;16.898;2023-05-07T00:18:31;8.60;;;6.05;;
32872;SDS011;19224;52.462;16.898;2023-05-07T00:21:02;11.73;;;6.40;;
32872;SDS011;19224;52.462;16.898;2023-05-07T00:23:33;10.58;;;6.00;;
32872;SDS011;19224;52.462;16.898;2023-05-07T00:26:03;9.90;;;5.85;;
32872;SDS011;19224;52.462;16.898;2023-05-07T00:28:34;9.05;;;6.45;;
32872;SDS011;19224;52.462;16.898;2023-05-07T00:31:04;10.50;;;6.03;;
32872;SDS011;19224;52.462;16.898;2023-05-07T00:33:35;10.30;;;6.17;;
32872;SDS011;19224;52.462;16.898;2023-05-07T00:36:05;9.48;;;6.10;;
32872;SDS011;19224;52.462;16.898;2023-05-07T00:38:36;10.98;;;6.47;;
32872;SDS011;19224;52.462;16.898;2023-05-07T00:41:07;11.25;;;7.15;;
32872;SDS011;19224;52.462;16.898;2023-05-07T00:43:37;11.08;;;6.35;;
32872;SDS011;19224;52.462;16.898;2023-05-07T00:46:08;11.40;;;6.60;;
32872;SDS011;19224;52.462;16.898;2023-05-07T00:48:39;10.15;;;6.28;;
32872;SDS011;19224;52.462;16.898;2023-05-07T00:51:09;12.88;;;6.58;;
32872;SDS011;19224;52.462;16.898;2023-05-07T00:53:40;11.50;;;6.70;;
32872;SDS011;19224;52.462;16.898;2023-05-07T00:56:11;11.57;;;6.87;;
32872;SDS011;19224;52.462;16.898;2023-05-07T00:58:41;10.88;;;6.95;;
32872;SDS011;19224;52.462;16.898;2023-05-07T01:01:11;11.45;;;6.58;;
32872;SDS011;19224;52.462;16.898;2023-05-07T01:03:43;13.08;;;7.15;;
32872;SDS011;19224;52.462;16.898;2023-05-07T01:06:13;11.05;;;6.33;;
32872;SDS011;19224;52.462;16.898;2023-05-07T01:08:45;8.98;;;6.20;;
32872;SDS011;19224;52.462;16.898;2023-05-07T01:11:18;10.10;;;6.53;;
32872;SDS011;19224;52.462;16.898;2023-05-07T01:13:48;13.55;;;6.90;;
32872;SDS011;19224;52.462;16.898;2023-05-07T01:16:19;10.65;;;5.83;;
32872;SDS011;19224;52.462;16.898;2023-05-07T01:18:50;11.68;;;6.42;;
32872;SDS011;19224;52.462;16.898;2023-05-07T01:21:23;11.43;;;6.72;;
32872;SDS011;19224;52.462;16.898;2023-05-07T01:23:55;11.70;;;6.67;;
32872;SDS011;19224;52.462;16.898;2023-05-07T01:26:26;9.65;;;6.65;;
32872;SDS011;19224;52.462;16.898;2023-05-07T01:28:56;12.45;;;6.85;;
32872;SDS011;19224;52.462;16.898;2023-05-07T01:31:27;12.37;;;6.72;;
32872;SDS011;19224;52.462;16.898;2023-05-07T01:33:58;13.65;;;6.58;;
32872;SDS011;19224;52.462;16.898;2023-05-07T01:36:31;11.35;;;6.72;;
32872;SDS011;19224;52.462;16.898;2023-05-07T01:39:02;11.70;;;6.85;;
32872;SDS011;19224;52.462;16.898;2023-05-07T01:41:33;12.37;;;6.12;;
32872;SDS011;19224;52.462;16.898;2023-05-07T01:44:04;11.60;;;6.30;;
32872;SDS011;19224;52.462;16.898;2023-05-07T01:46:36;10.50;;;6.62;;
32872;SDS011;19224;52.462;16.898;2023-05-07T01:49:07;12.50;;;7.17;;
32872;SDS011;19224;52.462;16.898;2023-05-07T01:51:37;11.70;;;6.40;;
32872;SDS011;19224;52.462;16.898;2023-05-07T01:54:09;12.37;;;6.90;;
32872;SDS011;19224;52.462;16.898;2023-05-07T01:56:40;13.43;;;7.28;;
32872;SDS011;19224;52.462;16.898;2023-05-07T01:59:10;10.68;;;7.10;;
32872;SDS011;19224;52.462;16.898;2023-05-07T02:01:41;12.25;;;7.10;;
32872;SDS011;19224;52.462;16.898;2023-05-07T02:04:11;11.05;;;6.67;;
32872;SDS011;19224;52.462;16.898;2023-05-07T02:06:41;12.65;;;7.33;;
32872;SDS011;19224;52.462;16.898;2023-05-07T02:09:11;13.32;;;8.15;;
32872;SDS011;19224;52.462;16.898;2023-05-07T02:11:42;12.05;;;7.58;;
32872;SDS011;19224;52.462;16.898;2023-05-07T02:14:12;12.07;;;7.97;;
32872;SDS011;19224;52.462;16.898;2023-05-07T02:16:43;13.55;;;7.60;;
32872;SDS011;19224;52.462;16.898;2023-05-07T02:19:13;9.95;;;7.42;;
32872;SDS011;19224;52.462;16.898;2023-05-07T02:21:43;12.93;;;8.00;;
32872;SDS011;19224;52.462;16.898;2023-05-07T02:24:14;14.85;;;7.90;;
32872;SDS011;19224;52.462;16.898;2023-05-07T02:26:44;14.58;;;7.65;;
32872;SDS011;19224;52.462;16.898;2023-05-07T02:29:14;12.85;;;8.75;;
32872;SDS011;19224;52.462;16.898;2023-05-07T02:31:44;12.88;;;7.97;;
32872;SDS011;19224;52.462;16.898;2023-05-07T02:34:17;12.30;;;8.10;;
32872;SDS011;19224;52.462;16.898;2023-05-07T02:36:48;11.83;;;8.20;;
32872;SDS011;19224;52.462;16.898;2023-05-07T02:39:18;12.95;;;8.10;;
32872;SDS011;19224;52.462;16.898;2023-05-07T02:41:48;15.05;;;8.18;;
32872;SDS011;19224;52.462;16.898;2023-05-07T02:44:18;10.70;;;7.97;;
32872;SDS011;19224;52.462;16.898;2023-05-07T02:46:48;11.30;;;7.85;;
32872;SDS011;19224;52.462;16.898;2023-05-07T02:49:19;13.72;;;8.45;;
32872;SDS011;19224;52.462;16.898;2023-05-07T02:51:49;10.95;;;7.67;;
32872;SDS011;19224;52.462;16.898;2023-05-07T02:54:19;13.62;;;8.33;;
32872;SDS011;19224;52.462;16.898;2023-05-07T02:56:50;14.68;;;8.13;;
32872;SDS011;19224;52.462;16.898;2023-05-07T02:59:20;13.22;;;8.20;;
32872;SDS011;19224;52.462;16.898;2023-05-07T03:01:50;11.38;;;7.62;;
32872;SDS011;19224;52.462;16.898;2023-05-07T03:04:21;15.78;;;7.62;;
32872;SDS011;19224;52.462;16.898;2023-05-07T03:06:51;15.10;;;7.87;;
32872;SDS011;19224;52.462;16.898;2023-05-07T03:09:21;12.00;;;7.53;;
32872;SDS011;19224;52.462;16.898;2023-05-07T03:11:51;12.10;;;7.70;;
32872;SDS011;19224;52.462;16.898;2023-05-07T03:14:22;12.78;;;8.48;;
32872;SDS011;19224;52.462;16.898;2023-05-07T03:16:52;11.10;;;7.42;;
32872;SDS011;19224;52.462;16.898;2023-05-07T03:19:22;13.68;;;8.13;;
32872;SDS011;19224;52.462;16.898;2023-05-07T03:21:53;12.35;;;7.17;;
32872;SDS011;19224;52.462;16.898;2023-05-07T03:24:23;14.93;;;7.37;;
32872;SDS011;19224;52.462;16.898;2023-05-07T03:26:53;12.53;;;7.55;;
32872;SDS011;19224;52.462;16.898;2023-05-07T03:29:25;12.15;;;7.80;;
32872;SDS011;19224;52.462;16.898;2023-05-07T03:31:55;11.28;;;7.30;;
32872;SDS011;19224;52.462;16.898;2023-05-07T03:34:26;13.85;;;7.53;;
32872;SDS011;19224;52.462;16.898;2023-05-07T03:36:56;12.65;;;7.67;;
32872;SDS011;19224;52.462;16.898;2023-05-07T03:39:27;11.85;;;8.10;;
32872;SDS011;19224;52.462;16.898;2023-05-07T03:41:58;10.85;;;7.50;;
32872;SDS011;19224;52.462;16.898;2023-05-07T03:44:28;11.33;;;7.10;;
32872;SDS011;19224;52.462;16.898;2023-05-07T03:46:58;9.98;;;6.72;;
32872;SDS011;19224;52.462;16.898;2023-05-07T03:49:29;11.57;;;6.62;;
32872;SDS011;19224;52.462;16.898;2023-05-07T03:51:59;12.15;;;6.72;;
32872;SDS011;19224;52.462;16.898;2023-05-07T03:54:29;13.68;;;7.30;;
32872;SDS011;19224;52.462;16.898;2023-05-07T03:57:00;17.55;;;6.60;;
32872;SDS011;19224;52.462;16.898;2023-05-07T03:59:31;11.28;;;6.47;;
32872;SDS011;19224;52.462;16.898;2023-05-07T04:02:01;8.13;;;6.17;;
32872;SDS011;19224;52.462;16.898;2023-05-07T04:04:31;13.15;;;6.50;;
32872;SDS011;19224;52.462;16.898;2023-05-07T04:07:02;12.30;;;7.50;;
32872;SDS011;19224;52.462;16.898;2023-05-07T04:09:32;12.00;;;7.05;;
32872;SDS011;19224;52.462;16.898;2023-05-07T04:12:02;12.33;;;6.92;;
32872;SDS011;19224;52.462;16.898;2023-05-07T04:14:33;16.45;;;6.92;;
32872;SDS011;19224;52.462;16.898;2023-05-07T04:17:03;12.07;;;7.10;;
32872;SDS011;19224;52.462;16.898;2023-05-07T04:19:34;13.55;;;7.75;;
32872;SDS011;19224;52.462;16.898;2023-05-07T04:22:05;11.10;;;6.90;;
32872;SDS011;19224;52.462;16.898;2023-05-07T04:24:35;11.97;;;6.92;;
32872;SDS011;19224;52.462;16.898;2023-05-07T04:27:06;15.10;;;7.15;;
32872;SDS011;19224;52.462;16.898;2023-05-07T04:29:36;24.35;;;8.35;;
32872;SDS011;19224;52.462;16.898;2023-05-07T04:32:09;11.08;;;6.92;;
32872;SDS011;19224;52.462;16.898;2023-05-07T04:34:40;14.75;;;7.53;;
32872;SDS011;19224;52.462;16.898;2023-05-07T04:37:10;12.68;;;7.75;;
32872;SDS011;19224;52.462;16.898;2023-05-07T04:39:40;11.45;;;7.50;;
32872;SDS011;19224;52.462;16.898;2023-05-07T04:42:14;11.03;;;7.50;;
32872;SDS011;19224;52.462;16.898;2023-05-07T04:44:47;13.18;;;7.50;;
32872;SDS011;19224;52.462;16.898;2023-05-07T04:47:18;11.97;;;7.53;;
32872;SDS011;19224;52.462;16.898;2023-05-07T04:49:49;12.82;;;7.67;;
32872;SDS011;19224;52.462;16.898;2023-05-07T04:52:19;13.10;;;7.92;;
32872;SDS011;19224;52.462;16.898;2023-05-07T04:54:50;9.70;;;6.60;;
32872;SDS011;19224;52.462;16.898;2023-05-07T04:57:20;12.82;;;7.33;;
32872;SDS011;19224;52.462;16.898;2023-05-07T04:59:50;12.73;;;7.12;;
32872;SDS011;19224;52.462;16.898;2023-05-07T05:02:21;9.10;;;6.15;;
32872;SDS011;19224;52.462;16.898;2023-05-07T05:04:51;10.38;;;7.33;;
32872;SDS011;19224;52.462;16.898;2023-05-07T05:07:22;11.63;;;6.40;;
32872;SDS011;19224;52.462;16.898;2023-05-07T05:09:52;10.88;;;6.35;;
32872;SDS011;19224;52.462;16.898;2023-05-07T05:12:23;9.93;;;6.25;;
32872;SDS011;19224;52.462;16.898;2023-05-07T05:14:54;9.38;;;6.50;;
32872;SDS011;19224;52.462;16.898;2023-05-07T05:17:24;12.18;;;6.22;;
32872;SDS011;19224;52.462;16.898;2023-05-07T05:19:55;7.50;;;5.00;;
32872;SDS011;19224;52.462;16.898;2023-05-07T05:22:25;9.80;;;5.40;;
32872;SDS011;19224;52.462;16.898;2023-05-07T05:24:57;8.20;;;5.30;;
32872;SDS011;19224;52.462;16.898;2023-05-07T05:27:29;7.70;;;5.45;;
32872;SDS011;19224;52.462;16.898;2023-05-07T05:29:59;7.40;;;5.33;;
32872;SDS011;19224;52.462;16.898;2023-05-07T05:32:30;6.47;;;4.80;;
32872;SDS011;19224;52.462;16.898;2023-05-07T05:35:00;6.97;;;5.60;;
32872;SDS011;19224;52.462;16.898;2023-05-07T05:37:30;9.10;;;5.90;;
32872;SDS011;19224;52.462;16.898;2023-05-07T05:40:00;11.97;;;5.40;;
32872;SDS011;19224;52.462;16.898;2023-05-07T05:42:32;10.43;;;5.20;;
32872;SDS011;19224;52.462;16.898;2023-05-07T05:45:02;8.35;;;5.45;;
32872;SDS011;19224;52.462;16.898;2023-05-07T05:47:33;9.33;;;5.22;;
32872;SDS011;19224;52.462;16.898;2023-05-07T05:50:04;6.62;;;4.72;;
32872;SDS011;19224;52.462;16.898;2023-05-07T05:52:37;8.23;;;5.17;;
32872;SDS011;19224;52.462;16.898;2023-05-07T05:55:08;6.22;;;4.72;;
32872;SDS011;19224;52.462;16.898;2023-05-07T05:57:39;9.13;;;5.15;;
32872;SDS011;19224;52.462;16.898;2023-05-07T06:00:10;9.98;;;4.97;;
32872;SDS011;19224;52.462;16.898;2023-05-07T06:02:41;7.75;;;4.75;;
32872;SDS011;19224;52.462;16.898;2023-05-07T06:05:11;6.30;;;4.60;;
32872;SDS011;19224;52.462;16.898;2023-05-07T06:07:42;7.78;;;4.53;;
32872;SDS011;19224;52.462;16.898;2023-05-07T06:10:12;7.55;;;4.22;;
32872;SDS011;19224;52.462;16.898;2023-05-07T06:12:43;7.60;;;4.50;;
32872;SDS011;19224;52.462;16.898;2023-05-07T06:15:14;6.72;;;4.17;;
32872;SDS011;19224;52.462;16.898;2023-05-07T06:17:44;5.35;;;3.87;;
32872;SDS011;19224;52.462;16.898;2023-05-07T06:20:15;5.58;;;3.00;;
32872;SDS011;19224;52.462;16.898;2023-05-07T06:22:45;4.45;;;2.85;;
32872;SDS011;19224;52.462;16.898;2023-05-07T06:25:15;3.55;;;2.42;;
32872;SDS011;19224;52.462;16.898;2023-05-07T06:27:45;5.25;;;3.75;;
32872;SDS011;19224;52.462;16.898;2023-05-07T06:30:16;3.10;;;2.25;;
32872;SDS011;19224;52.462;16.898;2023-05-07T06:32:46;3.83;;;2.33;;
32872;SDS011;19224;52.462;16.898;2023-05-07T06:35:16;5.85;;;2.02;;
32872;SDS011;19224;52.462;16.898;2023-05-07T06:37:46;4.72;;;2.12;;
32872;SDS011;19224;52.462;16.898;2023-05-07T06:40:16;4.85;;;2.02;;
32872;SDS011;19224;52.462;16.898;2023-05-07T06:42:46;3.40;;;1.90;;
32872;SDS011;19224;52.462;16.898;2023-05-07T06:45:17;5.72;;;2.27;;
32872;SDS011;19224;52.462;16.898;2023-05-07T06:47:49;3.45;;;1.85;;
32872;SDS011;19224;52.462;16.898;2023-05-07T06:50:19;2.95;;;1.80;;
32872;SDS011;19224;52.462;16.898;2023-05-07T06:52:53;3.25;;;2.05;;
32872;SDS011;19224;52.462;16.898;2023-05-07T06:55:23;2.45;;;1.82;;
32872;SDS011;19224;52.462;16.898;2023-05-07T06:57:53;2.72;;;1.80;;
32872;SDS011;19224;52.462;16.898;2023-05-07T07:00:26;2.72;;;1.87;;
32872;SDS011;19224;52.462;16.898;2023-05-07T07:02:56;4.37;;;2.12;;
32872;SDS011;19224;52.462;16.898;2023-05-07T07:05:31;2.33;;;1.50;;
32872;SDS011;19224;52.462;16.898;2023-05-07T07:08:05;3.15;;;1.50;;
32872;SDS011;19224;52.462;16.898;2023-05-07T07:10:35;2.47;;;1.80;;
32872;SDS011;19224;52.462;16.898;2023-05-07T07:13:05;4.72;;;1.52;;
32872;SDS011;19224;52.462;16.898;2023-05-07T07:15:36;2.65;;;1.52;;
32872;SDS011;19224;52.462;16.898;2023-05-07T07:18:06;3.02;;;1.80;;
32872;SDS011;19224;52.462;16.898;2023-05-07T07:20:36;3.35;;;1.80;;
32872;SDS011;19224;52.462;16.898;2023-05-07T07:23:06;4.72;;;1.67;;
32872;SDS011;19224;52.462;16.898;2023-05-07T07:25:37;2.70;;;1.65;;
32872;SDS011;19224;52.462;16.898;2023-05-07T07:28:07;3.65;;;1.80;;
32872;SDS011;19224;52.462;16.898;2023-05-07T07:30:38;6.22;;;1.60;;
32872;SDS011;19224;52.462;16.898;2023-05-07T07:33:09;2.83;;;1.55;;
32872;SDS011;19224;52.462;16.898;2023-05-07T07:35:39;3.05;;;1.57;;
32872;SDS011;19224;52.462;16.898;2023-05-07T07:38:10;2.87;;;1.45;;
32872;SDS011;19224;52.462;16.898;2023-05-07T07:40:40;3.10;;;1.67;;
32872;SDS011;19224;52.462;16.898;2023-05-07T07:43:11;4.60;;;1.42;;
32872;SDS011;19224;52.462;16.898;2023-05-07T07:45:41;4.45;;;1.77;;
32872;SDS011;19224;52.462;16.898;2023-05-07T07:48:13;2.05;;;1.20;;
32872;SDS011;19224;52.462;16.898;2023-05-07T07:50:44;5.20;;;1.20;;
32872;SDS011;19224;52.462;16.898;2023-05-07T07:53:15;7.40;;;2.60;;
32872;SDS011;19224;52.462;16.898;2023-05-07T07:55:46;3.47;;;1.62;;
32872;SDS011;19224;52.462;16.898;2023-05-07T07:58:17;5.42;;;1.20;;
32872;SDS011;19224;52.462;16.898;2023-05-07T08:00:52;2.45;;;1.22;;
32872;SDS011;19224;52.462;16.898;2023-05-07T08:03:20;1.47;;;1.30;;
32872;SDS011;19224;52.462;16.898;2023-05-07T08:05:51;4.40;;;1.27;;
32872;SDS011;19224;52.462;16.898;2023-05-07T08:08:21;5.37;;;1.70;;
32872;SDS011;19224;52.462;16.898;2023-05-07T08:10:52;2.25;;;1.30;;
32872;SDS011;19224;52.462;16.898;2023-05-07T08:13:22;1.70;;;1.30;;
32872;SDS011;19224;52.462;16.898;2023-05-07T08:15:53;3.70;;;1.45;;
32872;SDS011;19224;52.462;16.898;2023-05-07T08:18:24;3.92;;;1.35;;
32872;SDS011;19224;52.462;16.898;2023-05-07T08:20:56;6.83;;;1.27;;
32872;SDS011;19224;52.462;16.898;2023-05-07T08:23:26;4.17;;;1.42;;
32872;SDS011;19224;52.462;16.898;2023-05-07T08:25:57;5.62;;;1.50;;
32872;SDS011;19224;52.462;16.898;2023-05-07T08:28:28;5.30;;;1.32;;
32872;SDS011;19224;52.462;16.898;2023-05-07T08:30:58;2.17;;;1.37;;
32872;SDS011;19224;52.462;16.898;2023-05-07T08:33:28;2.08;;;1.40;;
32872;SDS011;19224;52.462;16.898;2023-05-07T08:35:58;3.92;;;1.30;;
32872;SDS011;19224;52.462;16.898;2023-05-07T08:38:28;5.30;;;1.67;;
32872;SDS011;19224;52.462;16.898;2023-05-07T08:40:59;3.37;;;1.40;;
32872;SDS011;19224;52.462;16.898;2023-05-07T08:43:29;3.70;;;1.02;;
32872;SDS011;19224;52.462;16.898;2023-05-07T08:46:03;4.78;;;1.50;;
32872;SDS011;19224;52.462;16.898;2023-05-07T08:48:34;4.65;;;1.57;;
32872;SDS011;19224;52.462;16.898;2023-05-07T08:51:12;2.98;;;1.55;;
32872;SDS011;19224;52.462;16.898;2023-05-07T08:53:46;2.75;;;1.30;;
32872;SDS011;19224;52.462;16.898;2023-05-07T08:56:18;3.83;;;1.65;;
32872;SDS011;19224;52.462;16.898;2023-05-07T08:58:48;2.52;;;1.62;;
32872;SDS011;19224;52.462;16.898;2023-05-07T09:01:18;2.58;;;1.25;;
32872;SDS011;19224;52.462;16.898;2023-05-07T09:03:49;3.50;;;1.50;;
32872;SDS011;19224;52.462;16.898;2023-05-07T09:06:20;4.25;;;1.50;;
32872;SDS011;19224;52.462;16.898;2023-05-07T09:08:51;1.40;;;1.30;;
32872;SDS011;19224;52.462;16.898;2023-05-07T09:11:24;2.45;;;1.65;;
32872;SDS011;19224;52.462;16.898;2023-05-07T09:13:55;2.77;;;1.80;;
32872;SDS011;19224;52.462;16.898;2023-05-07T09:16:29;3.72;;;1.75;;
32872;SDS011;19224;52.462;16.898;2023-05-07T09:19:00;5.55;;;1.72;;
32872;SDS011;19224;52.462;16.898;2023-05-07T09:21:31;5.12;;;1.62;;
32872;SDS011;19224;52.462;16.898;2023-05-07T09:24:01;4.58;;;1.70;;
32872;SDS011;19224;52.462;16.898;2023-05-07T09:26:31;2.08;;;1.60;;
32872;SDS011;19224;52.462;16.898;2023-05-07T09:29:02;2.33;;;1.55;;
32872;SDS011;19224;52.462;16.898;2023-05-07T09:31:36;3.27;;;1.65;;
32872;SDS011;19224;52.462;16.898;2023-05-07T09:34:07;4.75;;;1.60;;
32872;SDS011;19224;52.462;16.898;2023-05-07T09:36:38;2.30;;;1.50;;
32872;SDS011;19224;52.462;16.898;2023-05-07T09:39:09;2.27;;;1.50;;
32872;SDS011;19224;52.462;16.898;2023-05-07T09:41:47;4.45;;;2.83;;
32872;SDS011;19224;52.462;16.898;2023-05-07T09:44:13;10.28;;;2.12;;
32872;SDS011;19224;52.462;16.898;2023-05-07T09:46:44;2.47;;;1.60;;
32872;SDS011;19224;52.462;16.898;2023-05-07T09:49:20;1.95;;;1.25;;
32872;SDS011;19224;52.462;16.898;2023-05-07T09:51:52;2.67;;;1.65;;
32872;SDS011;19224;52.462;16.898;2023-05-07T09:54:24;2.83;;;1.72;;
32872;SDS011;19224;52.462;16.898;2023-05-07T09:56:57;2.50;;;1.45;;
32872;SDS011;19224;52.462;16.898;2023-05-07T09:59:36;1.77;;;1.47;;
32872;SDS011;19224;52.462;16.898;2023-05-07T10:02:03;2.17;;;1.77;;
32872;SDS011;19224;52.462;16.898;2023-05-07T10:04:33;6.28;;;1.85;;
32872;SDS011;19224;52.462;16.898;2023-05-07T10:07:05;2.87;;;1.70;;
32872;SDS011;19224;52.462;16.898;2023-05-07T10:09:35;4.22;;;1.90;;
32872;SDS011;19224;52.462;16.898;2023-05-07T10:12:09;3.80;;;1.67;;
32872;SDS011;19224;52.462;16.898;2023-05-07T10:14:39;4.62;;;1.30;;
32872;SDS011;19224;52.462;16.898;2023-05-07T10:17:10;6.40;;;1.92;;
32872;SDS011;19224;52.462;16.898;2023-05-07T10:19:43;2.30;;;1.52;;
32872;SDS011;19224;52.462;16.898;2023-05-07T10:22:15;1.30;;;1.20;;
32872;SDS011;19224;52.462;16.898;2023-05-07T10:24:47;4.87;;;2.37;;
32872;SDS011;19224;52.462;16.898;2023-05-07T10:27:21;2.08;;;1.20;;
32872;SDS011;19224;52.462;16.898;2023-05-07T10:33:05;3.83;;;1.45;;
32872;SDS011;19224;52.462;16.898;2023-05-07T10:35:41;2.08;;;1.42;;
32872;SDS011;19224;52.462;16.898;2023-05-07T10:38:14;4.80;;;1.30;;
32872;SDS011;19224;52.462;16.898;2023-05-07T10:40:44;2.25;;;1.47;;
32872;SDS011;19224;52.462;16.898;2023-05-07T10:43:14;3.35;;;1.57;;
32872;SDS011;19224;52.462;16.898;2023-05-07T10:51:35;1.20;;;1.10;;
32872;SDS011;19224;52.462;16.898;2023-05-07T10:56:46;9.18;;;3.58;;
32872;SDS011;19224;52.462;16.898;2023-05-07T11:02:05;4.00;;;1.82;;
32872;SDS011;19224;52.462;16.898;2023-05-07T11:04:37;5.33;;;1.72;;
32872;SDS011;19224;52.462;16.898;2023-05-07T11:09:56;2.47;;;1.60;;
32872;SDS011;19224;52.462;16.898;2023-05-07T11:15:13;3.05;;;1.92;;
32872;SDS011;19224;52.462;16.898;2023-05-07T11:17:52;3.00;;;1.65;;
32872;SDS011;19224;52.462;16.898;2023-05-07T11:20:47;2.95;;;1.95;;
32872;SDS011;19224;52.462;16.898;2023-05-07T11:26:10;4.80;;;1.40;;
32872;SDS011;19224;52.462;16.898;2023-05-07T11:28:41;2.42;;;1.07;;
32872;SDS011;19224;52.462;16.898;2023-05-07T11:31:13;1.35;;;1.00;;
32872;SDS011;19224;52.462;16.898;2023-05-07T11:33:46;2.47;;;1.02;;
32872;SDS011;19224;52.462;16.898;2023-05-07T11:36:30;3.95;;;1.15;;
32872;SDS011;19224;52.462;16.898;2023-05-07T11:38:57;2.35;;;1.10;;
32872;SDS011;19224;52.462;16.898;2023-05-07T11:41:33;1.65;;;1.00;;
32872;SDS011;19224;52.462;16.898;2023-05-07T11:44:08;3.75;;;1.40;;
32872;SDS011;19224;52.462;16.898;2023-05-07T11:46:42;2.85;;;1.00;;
32872;SDS011;19224;52.462;16.898;2023-05-07T11:49:13;3.12;;;1.00;;
32872;SDS011;19224;52.462;16.898;2023-05-07T11:51:43;4.53;;;1.20;;
32872;SDS011;19224;52.462;16.898;2023-05-07T11:54:21;1.77;;;1.10;;
32872;SDS011;19224;52.462;16.898;2023-05-07T11:56:46;3.17;;;1.20;;
32872;SDS011;19224;52.462;16.898;2023-05-07T11:59:19;5.00;;;1.20;;
32872;SDS011;19224;52.462;16.898;2023-05-07T12:01:49;5.55;;;1.20;;
32872;SDS011;19224;52.462;16.898;2023-05-07T12:04:20;3.40;;;1.32;;
32872;SDS011;19224;52.462;16.898;2023-05-07T12:06:53;5.35;;;1.60;;
32872;SDS011;19224;52.462;16.898;2023-05-07T12:09:24;3.67;;;1.60;;
32872;SDS011;19224;52.462;16.898;2023-05-07T12:11:55;1.52;;;1.30;;
32872;SDS011;19224;52.462;16.898;2023-05-07T12:14:28;4.87;;;1.50;;
32872;SDS011;19224;52.462;16.898;2023-05-07T12:17:00;1.55;;;1.20;;
32872;SDS011;19224;52.462;16.898;2023-05-07T12:19:32;2.58;;;1.12;;
32872;SDS011;19224;52.462;16.898;2023-05-07T12:22:05;3.20;;;1.30;;
32872;SDS011;19224;52.462;16.898;2023-05-07T12:24:47;2.42;;;1.30;;
32872;SDS011;19224;52.462;16.898;2023-05-07T12:27:20;4.97;;;2.15;;
32872;SDS011;19224;52.462;16.898;2023-05-07T12:29:51;1.65;;;1.22;;
32872;SDS011;19224;52.462;16.898;2023-05-07T12:32:21;5.17;;;1.62;;
32872;SDS011;19224;52.462;16.898;2023-05-07T12:34:52;3.22;;;1.57;;
32872;SDS011;19224;52.462;16.898;2023-05-07T12:37:23;2.52;;;1.20;;
32872;SDS011;19224;52.462;16.898;2023-05-07T12:40:03;1.70;;;1.27;;
32872;SDS011;19224;52.462;16.898;2023-05-07T12:42:39;1.52;;;1.25;;
32872;SDS011;19224;52.462;16.898;2023-05-07T12:45:12;3.42;;;1.20;;
32872;SDS011;19224;52.462;16.898;2023-05-07T12:47:45;4.20;;;1.70;;
32872;SDS011;19224;52.462;16.898;2023-05-07T12:50:16;3.52;;;1.22;;
32872;SDS011;19224;52.462;16.898;2023-05-07T12:52:48;2.22;;;1.30;;
32872;SDS011;19224;52.462;16.898;2023-05-07T12:55:20;2.58;;;1.22;;
32872;SDS011;19224;52.462;16.898;2023-05-07T12:57:51;5.85;;;2.27;;
32872;SDS011;19224;52.462;16.898;2023-05-07T13:00:34;1.77;;;1.50;;
32872;SDS011;19224;52.462;16.898;2023-05-07T13:03:06;3.58;;;1.57;;
32872;SDS011;19224;52.462;16.898;2023-05-07T13:05:36;2.75;;;1.60;;
32872;SDS011;19224;52.462;16.898;2023-05-07T13:08:07;2.75;;;1.60;;
32872;SDS011;19224;52.462;16.898;2023-05-07T13:10:37;5.35;;;1.50;;
32872;SDS011;19224;52.462;16.898;2023-05-07T13:13:08;2.55;;;1.62;;
32872;SDS011;19224;52.462;16.898;2023-05-07T13:15:38;2.47;;;1.57;;
32872;SDS011;19224;52.462;16.898;2023-05-07T13:18:11;5.65;;;1.60;;
32872;SDS011;19224;52.462;16.898;2023-05-07T13:20:42;2.67;;;1.60;;
32872;SDS011;19224;52.462;16.898;2023-05-07T13:23:12;2.85;;;1.65;;
32872;SDS011;19224;52.462;16.898;2023-05-07T13:25:43;3.80;;;1.87;;
32872;SDS011;19224;52.462;16.898;2023-05-07T13:28:13;10.75;;;5.62;;
32872;SDS011;19224;52.462;16.898;2023-05-07T13:30:44;5.22;;;2.00;;
32872;SDS011;19224;52.462;16.898;2023-05-07T13:33:15;4.05;;;1.60;;
32872;SDS011;19224;52.462;16.898;2023-05-07T13:35:45;3.65;;;1.60;;
32872;SDS011;19224;52.462;16.898;2023-05-07T13:38:15;3.45;;;1.60;;
32872;SDS011;19224;52.462;16.898;2023-05-07T13:40:45;2.45;;;1.60;;
32872;SDS011;19224;52.462;16.898;2023-05-07T13:43:18;2.52;;;1.60;;
32872;SDS011;19224;52.462;16.898;2023-05-07T13:45:48;4.10;;;1.82;;
32872;SDS011;19224;52.462;16.898;2023-05-07T13:48:18;4.37;;;1.70;;
32872;SDS011;19224;52.462;16.898;2023-05-07T13:50:49;2.30;;;1.40;;
32872;SDS011;19224;52.462;16.898;2023-05-07T13:53:19;2.02;;;1.50;;
32872;SDS011;19224;52.462;16.898;2023-05-07T13:55:49;4.45;;;1.47;;
32872;SDS011;19224;52.462;16.898;2023-05-07T13:58:19;3.45;;;1.70;;
32872;SDS011;19224;52.462;16.898;2023-05-07T14:00:50;3.83;;;1.80;;
32872;SDS011;19224;52.462;16.898;2023-05-07T14:03:20;4.22;;;1.92;;
32872;SDS011;19224;52.462;16.898;2023-05-07T14:05:50;4.30;;;2.20;;
32872;SDS011;19224;52.462;16.898;2023-05-07T14:08:21;3.70;;;1.67;;
32872;SDS011;19224;52.462;16.898;2023-05-07T14:10:51;3.00;;;1.85;;
32872;SDS011;19224;52.462;16.898;2023-05-07T14:13:22;2.62;;;1.72;;
32872;SDS011;19224;52.462;16.898;2023-05-07T14:15:53;4.28;;;1.75;;
32872;SDS011;19224;52.462;16.898;2023-05-07T14:18:23;5.92;;;1.67;;
32872;SDS011;19224;52.462;16.898;2023-05-07T14:20:53;3.10;;;1.67;;
32872;SDS011;19224;52.462;16.898;2023-05-07T14:23:24;2.92;;;1.60;;
32872;SDS011;19224;52.462;16.898;2023-05-07T14:25:54;5.95;;;1.77;;
32872;SDS011;19224;52.462;16.898;2023-05-07T14:28:25;3.72;;;1.70;;
32872;SDS011;19224;52.462;16.898;2023-05-07T14:30:55;5.03;;;1.82;;
32872;SDS011;19224;52.462;16.898;2023-05-07T14:33:25;5.60;;;1.65;;
32872;SDS011;19224;52.462;16.898;2023-05-07T14:35:55;2.30;;;1.72;;
32872;SDS011;19224;52.462;16.898;2023-05-07T14:38:26;3.08;;;1.52;;
32872;SDS011;19224;52.462;16.898;2023-05-07T14:41:00;4.28;;;1.85;;
32872;SDS011;19224;52.462;16.898;2023-05-07T14:43:30;3.08;;;1.42;;
32872;SDS011;19224;52.462;16.898;2023-05-07T14:46:00;6.35;;;1.87;;
32872;SDS011;19224;52.462;16.898;2023-05-07T14:48:31;4.08;;;1.85;;
32872;SDS011;19224;52.462;16.898;2023-05-07T14:51:01;2.30;;;1.65;;
32872;SDS011;19224;52.462;16.898;2023-05-07T14:53:32;2.77;;;1.72;;
32872;SDS011;19224;52.462;16.898;2023-05-07T14:56:02;4.40;;;1.30;;
32872;SDS011;19224;52.462;16.898;2023-05-07T14:58:34;5.40;;;1.55;;
32872;SDS011;19224;52.462;16.898;2023-05-07T15:01:05;3.45;;;1.92;;
32872;SDS011;19224;52.462;16.898;2023-05-07T15:03:36;13.20;;;2.52;;
32872;SDS011;19224;52.462;16.898;2023-05-07T15:06:06;4.47;;;1.82;;
32872;SDS011;19224;52.462;16.898;2023-05-07T15:08:37;7.58;;;2.30;;
32872;SDS011;19224;52.462;16.898;2023-05-07T15:11:07;4.85;;;1.77;;
32872;SDS011;19224;52.462;16.898;2023-05-07T15:13:37;3.55;;;1.70;;
32872;SDS011;19224;52.462;16.898;2023-05-07T15:16:08;8.30;;;1.90;;